Still River @ Robertsville, Ct

Still River at Robertsville, CT
 Total Drainage Area: 85 sq. miles 
 Drainage Area Controlled by Corps Dams: 0 sq. miles (0%) 
 Warning Flow/Stage: ?? cfs / ?? feet 
 Flood Flow/Stage: ?? cfs / ?? feet 
Date Time
(Eastern)
Stage
(ft)
Flow
(cfs)
CSM
May-28 12:30 pm 2.41 124 1.5
May-28 11:30 am 2.38 118 1.4
May-28 10:30 am 2.36 113 1.3
May-28 09:30 am 2.33 107 1.3
May-28 08:30 am 2.30 101 1.2
May-28 07:30 am 2.31 103 1.2
May-28 06:30 am 2.34 109 1.3
May-28 05:30 am 2.22 88 1.0
May-28 04:30 am 2.11 71 .8
May-28 03:30 am 2.06 65 .8
May-28 02:30 am 2.01 59 .7
May-28 01:30 am 2.01 59 .7
May-28 12:30 am 2.00 57 .7
May-27 11:30 pm 1.98 55 .7
May-27 10:30 pm 1.97 54 .6
May-27 09:30 pm 1.97 54 .6
May-27 08:30 pm 1.97 54 .6
May-27 07:30 pm 1.97 54 .6
May-27 06:30 pm 1.97 54 .6
May-27 05:30 pm 1.98 55 .7
May-27 04:30 pm 1.98 55 .7
May-27 03:30 pm 1.98 55 .7
May-27 02:30 pm 1.96 53 .6
May-27 01:30 pm 1.96 53 .6
May-27 12:30 pm 1.96 53 .6
Report Generated May 28, 2022 05:32 pm